Time;durP1;ratioP1;P1;durP2;ratioP2;P2;SDS_P1;SDS_P2;PMS_P1;PMS_P2;Temp;Humidity;BMP_temperature;BMP_pressure;BME280_temperature;BME280_humidity;BME280_pressure;Samples;Min_cycle;Max_cycle;Signal;HPM_P1;HPM_P2
2021/11/26 00:00:49;;;;;;;35.58;16.83;;;;;;;4.27;98.83;99652.53;5035169;28;20104;-76
2021/11/26 00:03:17;;;;;;;33.42;16.95;;;;;;;4.30;99.09;99652.41;5039254;28;20048;-75
2021/11/26 00:05:47;;;;;;;28.90;15.48;;;;;;;4.24;98.85;99650.94;5053043;28;20056;-76
2021/11/26 00:08:14;;;;;;;30.17;15.48;;;;;;;4.24;98.96;99644.91;5079908;28;20381;-76
2021/11/26 00:10:42;;;;;;;29.83;16.40;;;;;;;4.22;100.00;99652.75;5016031;28;20041;-76
2021/11/26 00:13:12;;;;;;;34.17;16.65;;;;;;;4.25;99.05;99649.19;5047390;28;20056;-76
2021/11/26 00:15:41;;;;;;;33.78;16.75;;;;;;;4.20;99.98;99643.34;5014491;28;20068;-77
2021/11/26 00:18:17;;;;;;;32.40;16.15;;;;;;;4.22;99.48;99644.09;5047923;28;20067;-76
2021/11/26 00:20:47;;;;;;;31.00;16.55;;;;;;;4.17;99.86;99643.50;5043218;28;20033;-76
2021/11/26 00:23:17;;;;;;;36.88;16.45;;;;;;;4.19;99.56;99644.28;5065226;28;20052;-76
2021/11/26 00:25:45;;;;;;;30.98;17.65;;;;;;;4.18;99.50;99647.78;5031335;28;20041;-77
2021/11/26 00:28:13;;;;;;;33.53;15.43;;;;;;;4.22;99.84;99644.94;5017860;28;20057;-76
2021/11/26 00:30:45;;;;;;;35.47;17.02;;;;;;;4.20;99.45;99638.16;5048965;28;20041;-76
2021/11/26 00:33:13;;;;;;;40.50;16.80;;;;;;;4.16;100.00;99634.00;5068163;28;20060;-75
2021/11/26 00:35:40;;;;;;;32.60;15.57;;;;;;;4.11;99.68;99633.38;5035112;28;20062;-76
2021/11/26 00:38:07;;;;;;;38.63;17.10;;;;;;;4.14;100.00;99636.66;5053719;28;20170;-78
2021/11/26 00:40:36;;;;;;;29.98;15.60;;;;;;;4.16;99.81;99636.59;5051440;28;20727;-74
2021/11/26 00:43:05;;;;;;;30.08;15.15;;;;;;;4.18;99.87;99645.16;5063626;28;20080;-77
2021/11/26 00:45:42;;;;;;;36.83;16.45;;;;;;;4.22;99.63;99636.28;5055266;28;20029;-75
2021/11/26 00:48:10;;;;;;;37.63;16.42;;;;;;;4.18;99.26;99634.75;5050998;28;20059;-77
2021/11/26 00:50:39;;;;;;;27.52;15.30;;;;;;;4.17;99.61;99630.47;5046572;28;21035;-74
2021/11/26 00:53:10;;;;;;;33.20;14.93;;;;;;;4.18;99.71;99632.16;5052607;28;20414;-75
2021/11/26 00:55:40;;;;;;;27.92;14.40;;;;;;;4.19;99.18;99631.25;5051693;28;20044;-75
2021/11/26 00:58:10;;;;;;;33.75;15.68;;;;;;;4.17;98.98;99620.88;5050117;28;20044;-78
2021/11/26 01:00:40;;;;;;;25.70;15.35;;;;;;;4.15;99.38;99621.91;5065239;28;20121;-76
2021/11/26 01:03:10;;;;;;;30.02;16.02;;;;;;;4.16;99.78;99619.22;5035501;28;20139;-75
2021/11/26 01:05:37;;;;;;;31.80;16.33;;;;;;;4.11;99.50;99620.34;5051085;28;20048;-74
2021/11/26 01:08:06;;;;;;;27.90;13.45;;;;;;;4.15;98.76;99617.53;5065493;28;20071;-77
2021/11/26 01:10:34;;;;;;;30.40;14.77;;;;;;;4.09;98.65;99615.19;5067368;28;20076;-76
2021/11/26 01:13:02;;;;;;;36.30;15.43;;;;;;;4.03;99.03;99610.31;5035206;28;20048;-75
2021/11/26 01:15:33;;;;;;;26.27;14.98;;;;;;;4.06;99.73;99607.56;5022632;28;20135;-76
2021/11/26 01:18:00;;;;;;;24.00;14.55;;;;;;;4.06;98.81;99604.94;5068901;28;20139;-76
2021/11/26 01:20:29;;;;;;;29.10;15.50;;;;;;;4.16;98.51;99600.13;5065607;28;20045;-74
2021/11/26 01:22:57;;;;;;;27.67;14.55;;;;;;;4.11;98.63;99604.72;5035899;28;20206;-75
2021/11/26 01:25:26;;;;;;;26.67;13.85;;;;;;;4.16;98.41;99603.59;5081531;28;20044;-77
2021/11/26 01:27:58;;;;;;;26.92;14.35;;;;;;;4.13;98.65;99606.31;5069570;28;20127;-75
2021/11/26 01:30:30;;;;;;;28.00;14.23;;;;;;;4.15;98.30;99593.25;5046630;28;20048;-76
2021/11/26 01:33:00;;;;;;;36.45;14.77;;;;;;;4.13;98.36;99595.06;5052502;28;20123;-76
2021/11/26 01:35:29;;;;;;;30.92;14.88;;;;;;;4.09;98.46;99598.72;5048553;28;20128;-75
2021/11/26 01:37:56;;;;;;;26.60;14.48;;;;;;;4.12;98.14;99593.38;5052032;28;20103;-75
2021/11/26 01:40:25;;;;;;;28.75;15.18;;;;;;;4.07;99.02;99594.44;5030808;28;20044;-77
2021/11/26 01:42:55;;;;;;;28.98;13.70;;;;;;;4.10;98.11;99596.06;5083283;28;20075;-77
2021/11/26 01:45:22;;;;;;;26.80;13.65;;;;;;;4.16;97.98;99587.13;5053693;28;20072;-75
2021/11/26 01:47:51;;;;;;;25.42;13.90;;;;;;;4.15;98.38;99599.28;5048972;28;20082;-75
2021/11/26 01:50:24;;;;;;;28.20;13.45;;;;;;;4.15;98.51;99578.47;5047934;28;20443;-75
2021/11/26 01:52:53;;;;;;;31.48;13.77;;;;;;;4.22;98.05;99578.97;5067125;28;20047;-75
2021/11/26 01:55:20;;;;;;;32.58;13.48;;;;;;;4.17;98.81;99587.03;5064615;28;20139;-76
2021/11/26 01:57:48;;;;;;;35.80;14.07;;;;;;;4.12;98.16;99576.00;5035220;28;20064;-77
2021/11/26 02:00:22;;;;;;;25.20;12.85;;;;;;;4.14;98.37;99575.91;5048406;28;20135;-75
2021/11/26 02:02:49;;;;;;;30.15;13.48;;;;;;;4.16;97.71;99572.31;5051428;28;20119;-74
2021/11/26 02:05:19;;;;;;;26.17;13.38;;;;;;;4.14;98.25;99570.69;5015769;28;20036;-77
2021/11/26 02:07:48;;;;;;;23.73;13.38;;;;;;;4.13;98.42;99562.03;5050740;28;20045;-76
2021/11/26 02:10:18;;;;;;;26.70;13.70;;;;;;;4.11;98.17;99563.06;5044582;28;20043;-76
2021/11/26 02:12:46;;;;;;;24.92;12.38;;;;;;;4.12;97.98;99547.34;5067579;28;20127;-76
2021/11/26 02:15:24;;;;;;;32.95;14.32;;;;;;;4.09;97.88;99538.84;5048075;28;20051;-76
2021/11/26 02:17:58;;;;;;;25.35;12.98;;;;;;;4.13;98.20;99540.38;5067611;28;20518;-77
2021/11/26 02:20:28;;;;;;;29.05;13.60;;;;;;;4.12;98.53;99543.91;5064298;28;20040;-74
2021/11/26 02:22:57;;;;;;;30.58;13.77;;;;;;;4.12;98.24;99542.13;5065691;28;20060;-75
2021/11/26 02:25:29;;;;;;;34.88;13.60;;;;;;;4.15;97.89;99533.34;5031460;28;20144;-75
2021/11/26 02:27:59;;;;;;;23.02;12.63;;;;;;;4.13;98.60;99536.00;5082322;28;20640;-77
2021/11/26 02:30:28;;;;;;;28.67;13.52;;;;;;;4.18;97.85;99522.75;5029119;28;20484;-75
2021/11/26 02:33:09;;;;;;;26.27;12.98;;;;;;;4.16;97.77;99542.84;5067013;28;20041;-77
2021/11/26 02:35:40;;;;;;;28.95;13.98;;;;;;;4.13;97.72;99522.13;5049854;28;20128;-75
2021/11/26 02:38:12;;;;;;;27.85;13.25;;;;;;;4.09;98.02;99510.19;5048241;28;20049;-78
2021/11/26 02:40:42;;;;;;;27.13;13.07;;;;;;;4.06;98.28;99506.00;5065454;28;20471;-76
2021/11/26 02:43:11;;;;;;;24.60;13.95;;;;;;;4.05;98.50;99510.34;5067354;28;20109;-77
2021/11/26 02:45:39;;;;;;;30.52;13.23;;;;;;;4.09;98.64;99500.59;5059497;28;20143;-77
2021/11/26 02:48:07;;;;;;;28.05;14.32;;;;;;;4.14;98.09;99502.97;5063360;28;20140;-75
2021/11/26 02:50:36;;;;;;;24.77;12.85;;;;;;;4.05;99.08;99499.06;5045845;28;20098;-75
2021/11/26 02:53:08;;;;;;;32.65;14.05;;;;;;;4.02;98.74;99500.09;5034164;28;20134;-77
2021/11/26 02:55:37;;;;;;;30.33;14.30;;;;;;;4.03;98.44;99503.53;5060095;28;20040;-75
2021/11/26 02:58:06;;;;;;;28.95;13.32;;;;;;;4.05;98.95;99502.53;5065093;28;20062;-74
2021/11/26 03:00:35;;;;;;;25.05;14.23;;;;;;;4.14;98.65;99500.38;5029347;28;20055;-75
2021/11/26 03:03:03;;;;;;;28.15;14.70;;;;;;;4.10;98.11;99497.09;5048242;28;20048;-77
2021/11/26 03:05:32;;;;;;;31.60;13.20;;;;;;;4.02;99.12;99496.66;5047656;28;20053;-76
2021/11/26 03:08:00;;;;;;;34.22;13.85;;;;;;;4.11;98.79;99495.34;5082295;28;20048;-77
2021/11/26 03:10:29;;;;;;;31.02;13.23;;;;;;;4.17;98.78;99489.81;5046024;28;20123;-76
2021/11/26 03:13:00;;;;;;;27.08;13.57;;;;;;;4.12;98.08;99487.44;5032209;28;20139;-76
2021/11/26 03:15:30;;;;;;;30.42;14.38;;;;;;;4.07;98.17;99490.28;5047779;28;20139;-76
2021/11/26 03:17:57;;;;;;;33.17;14.55;;;;;;;4.04;98.55;99474.78;5051851;28;20052;-77
2021/11/26 03:20:30;;;;;;;28.77;13.52;;;;;;;4.10;98.98;99483.22;5065327;28;20102;-75
2021/11/26 03:22:58;;;;;;;29.02;14.05;;;;;;;4.07;98.33;99469.44;5071693;28;20044;-75
2021/11/26 03:25:26;;;;;;;31.98;15.25;;;;;;;4.07;98.20;99469.44;5041248;28;20135;-75
2021/11/26 03:27:54;;;;;;;34.83;14.30;;;;;;;4.09;97.93;99471.97;5052736;28;20333;-76
2021/11/26 03:30:24;;;;;;;28.10;14.57;;;;;;;4.13;98.20;99475.25;5031162;28;20098;-75
2021/11/26 03:32:53;;;;;;;34.58;13.93;;;;;;;4.16;98.10;99482.91;5050132;28;20041;-74
2021/11/26 03:35:20;;;;;;;31.75;15.25;;;;;;;4.10;98.57;99476.28;5048524;28;20463;-75
2021/11/26 03:37:49;;;;;;;31.95;14.60;;;;;;;4.11;98.76;99469.28;5067162;28;20072;-76
2021/11/26 03:40:19;;;;;;;28.60;14.15;;;;;;;4.07;99.35;99469.44;5045389;28;20490;-77
2021/11/26 03:42:56;;;;;;;30.23;14.43;;;;;;;4.07;98.09;99464.22;5064266;28;20068;-76
2021/11/26 03:45:27;;;;;;;36.03;14.88;;;;;;;4.13;98.11;99467.44;5060726;28;20098;-76
2021/11/26 03:47:57;;;;;;;31.48;14.18;;;;;;;4.13;98.06;99460.47;5031155;28;20037;-77
2021/11/26 03:50:27;;;;;;;36.45;15.75;;;;;;;4.03;98.67;99460.09;5047836;28;20101;-75
2021/11/26 03:53:01;;;;;;;33.83;15.23;;;;;;;4.06;99.06;99465.16;5049695;28;20369;-75
2021/11/26 03:55:30;;;;;;;28.85;14.77;;;;;;;4.11;98.60;99464.09;5046558;28;20048;-77
2021/11/26 03:57:58;;;;;;;28.80;13.60;;;;;;;4.06;99.62;99464.31;5034607;28;20067;-75
2021/11/26 04:00:28;;;;;;;31.45;14.85;;;;;;;4.11;99.80;99458.88;5063163;28;20056;-77
2021/11/26 04:02:58;;;;;;;28.60;15.07;;;;;;;4.06;99.41;99451.31;5067577;28;20043;-74
2021/11/26 04:05:27;;;;;;;24.23;13.35;;;;;;;4.14;98.55;99446.50;5052127;28;20575;-77
2021/11/26 04:07:59;;;;;;;32.88;14.18;;;;;;;4.10;98.59;99446.75;5069570;28;20049;-77
2021/11/26 04:10:28;;;;;;;23.95;14.05;;;;;;;4.10;98.53;99442.41;5045985;28;20093;-75
2021/11/26 04:12:58;;;;;;;27.05;13.95;;;;;;;4.14;98.54;99437.88;5068667;28;20132;-75
2021/11/26 04:15:26;;;;;;;22.55;11.90;;;;;;;4.12;99.08;99443.16;5032521;28;20060;-77
2021/11/26 04:18:01;;;;;;;28.98;12.45;;;;;;;4.11;97.92;99444.09;5033420;28;20115;-75
2021/11/26 04:20:29;;;;;;;30.83;13.93;;;;;;;4.12;98.32;99439.72;5076709;28;20055;-75
2021/11/26 04:22:56;;;;;;;28.45;13.90;;;;;;;4.15;98.18;99436.97;5068323;28;20120;-74
2021/11/26 04:25:24;;;;;;;22.58;13.02;;;;;;;4.23;97.64;99434.78;5032514;28;20037;-75
2021/11/26 04:27:51;;;;;;;30.17;14.05;;;;;;;4.18;97.99;99422.00;5035716;28;20420;-75
2021/11/26 04:30:21;;;;;;;22.17;12.90;;;;;;;4.17;97.33;99424.69;5032864;28;20071;-76
2021/11/26 04:32:51;;;;;;;26.90;13.95;;;;;;;4.10;96.87;99426.78;5052133;28;20602;-76
2021/11/26 04:35:21;;;;;;;24.58;12.75;;;;;;;4.06;97.16;99433.91;5033007;28;20113;-76
2021/11/26 04:37:54;;;;;;;24.85;11.98;;;;;;;4.00;97.35;99433.38;5070703;28;20039;-75
2021/11/26 04:40:23;;;;;;;25.15;11.00;;;;;;;4.03;96.80;99425.41;5014791;28;20059;-76
2021/11/26 04:42:51;;;;;;;34.97;11.90;;;;;;;3.99;97.63;99416.06;5050861;28;20111;-77
2021/11/26 04:45:20;;;;;;;32.13;13.63;;;;;;;4.11;96.62;99422.41;5051385;28;20092;-78
2021/11/26 04:47:48;;;;;;;24.10;12.00;;;;;;;4.09;97.08;99413.81;5050046;28;20049;-75
2021/11/26 04:50:16;;;;;;;33.70;12.52;;;;;;;4.05;96.53;99407.94;5049894;28;20064;-78
2021/11/26 04:52:44;;;;;;;30.02;12.80;;;;;;;4.00;97.66;99405.56;5051842;28;20071;-76
2021/11/26 04:55:13;;;;;;;30.15;12.77;;;;;;;4.09;97.89;99411.22;5063273;28;20123;-76
2021/11/26 04:57:41;;;;;;;27.90;12.52;;;;;;;4.04;97.79;99403.66;5082082;28;20132;-75
2021/11/26 05:00:14;;;;;;;25.17;12.35;;;;;;;4.05;97.81;99414.00;5049122;28;20079;-78
2021/11/26 05:02:45;;;;;;;22.20;12.43;;;;;;;4.01;98.06;99409.88;5050541;28;20093;-75
2021/11/26 05:05:16;;;;;;;27.25;13.35;;;;;;;4.04;98.88;99406.25;5063773;28;20386;-77
2021/11/26 05:07:45;;;;;;;29.48;14.25;;;;;;;4.01;98.83;99402.06;5065661;28;20302;-77
2021/11/26 05:10:14;;;;;;;27.33;14.18;;;;;;;4.05;99.73;99392.28;5034557;28;20049;-78
2021/11/26 05:12:48;;;;;;;29.67;13.73;;;;;;;4.09;99.54;99396.44;5035762;28;20045;-76
2021/11/26 05:15:24;;;;;;;29.77;12.98;;;;;;;4.05;98.90;99390.56;5050673;28;20470;-76
2021/11/26 05:17:58;;;;;;;28.20;14.40;;;;;;;4.10;98.97;99389.47;5055885;28;20656;-73
2021/11/26 05:20:30;;;;;;;32.83;13.52;;;;;;;4.15;98.42;99390.91;5050105;28;20041;-77
2021/11/26 05:23:01;;;;;;;37.45;13.57;;;;;;;4.11;98.07;99380.75;5064573;28;20145;-78
2021/11/26 05:25:30;;;;;;;26.52;11.77;;;;;;;4.06;98.53;99379.22;5051413;28;21046;-77
2021/11/26 05:27:58;;;;;;;34.10;11.68;;;;;;;4.04;97.97;99378.44;5033211;28;20064;-76
2021/11/26 05:30:25;;;;;;;26.05;11.88;;;;;;;4.07;97.85;99375.69;5055647;28;20494;-79
2021/11/26 05:32:54;;;;;;;26.88;10.63;;;;;;;4.10;96.66;99371.22;5047645;28;20052;-76
2021/11/26 05:35:22;;;;;;;23.75;10.85;;;;;;;4.05;97.29;99364.53;5063262;28;20091;-75
2021/11/26 05:37:50;;;;;;;22.88;11.77;;;;;;;4.20;96.86;99364.63;5064227;28;20140;-75
2021/11/26 05:40:19;;;;;;;20.83;9.57;;;;;;;4.11;96.29;99365.97;5043791;28;20514;-76
2021/11/26 05:42:50;;;;;;;25.60;10.82;;;;;;;4.15;96.08;99361.44;5034032;28;20521;-76
2021/11/26 05:45:19;;;;;;;19.88;10.00;;;;;;;4.11;95.99;99363.34;5060345;28;20439;-77
2021/11/26 05:47:47;;;;;;;32.40;10.52;;;;;;;4.10;96.62;99364.28;5046467;28;20132;-76
2021/11/26 05:50:16;;;;;;;28.77;11.90;;;;;;;4.23;96.45;99354.03;5030123;28;20471;-76
2021/11/26 05:52:44;;;;;;;31.00;12.65;;;;;;;4.14;97.83;99349.31;5051412;28;20060;-76
2021/11/26 05:55:16;;;;;;;26.65;13.35;;;;;;;4.09;99.10;99340.91;5046319;28;20380;-76
2021/11/26 05:57:46;;;;;;;32.55;12.80;;;;;;;4.07;99.52;99343.59;5047004;28;20024;-76
2021/11/26 06:00:19;;;;;;;36.15;14.45;;;;;;;4.06;100.00;99336.72;5056133;28;20048;-77
2021/11/26 06:02:49;;;;;;;28.00;14.57;;;;;;;4.03;100.00;99339.47;5067750;28;20158;-75
2021/11/26 06:05:16;;;;;;;34.50;15.93;;;;;;;4.10;100.00;99343.44;5023654;28;20211;-76
2021/11/26 06:07:52;;;;;;;32.28;14.85;;;;;;;4.03;100.00;99342.06;5028271;28;20175;-76
2021/11/26 06:10:20;;;;;;;30.83;14.13;;;;;;;4.02;100.00;99346.44;5056659;28;20082;-78
2021/11/26 06:12:49;;;;;;;28.70;14.20;;;;;;;3.98;100.00;99350.13;5030956;28;20123;-76
2021/11/26 06:15:19;;;;;;;31.70;13.88;;;;;;;4.01;100.00;99349.13;5041335;28;20571;-75
2021/11/26 06:17:50;;;;;;;30.80;14.18;;;;;;;4.07;100.00;99351.41;5059830;28;20060;-74
2021/11/26 06:20:21;;;;;;;28.17;13.75;;;;;;;4.03;100.00;99345.50;5058051;28;20084;-76
2021/11/26 06:22:48;;;;;;;28.75;12.60;;;;;;;4.03;98.97;99342.91;5049664;28;20533;-76
2021/11/26 06:25:20;;;;;;;31.05;13.32;;;;;;;4.03;99.45;99348.13;5052348;28;20109;-77
2021/11/26 06:27:48;;;;;;;24.55;12.18;;;;;;;4.03;98.35;99344.69;5048589;28;20541;-77
2021/11/26 06:30:20;;;;;;;35.47;13.23;;;;;;;3.88;99.44;99356.75;5044088;28;20056;-77
2021/11/26 06:32:55;;;;;;;25.60;11.68;;;;;;;3.94;98.94;99345.16;5079807;28;20040;-76
2021/11/26 06:35:24;;;;;;;33.17;12.23;;;;;;;3.96;99.26;99338.97;5047477;28;20079;-75
2021/11/26 06:37:54;;;;;;;31.45;12.00;;;;;;;3.95;98.37;99345.06;5050951;28;20041;-77
2021/11/26 06:40:21;;;;;;;25.13;11.88;;;;;;;3.96;98.52;99341.56;5028095;28;20627;-75
2021/11/26 06:42:52;;;;;;;27.70;11.07;;;;;;;3.90;98.53;99334.06;5065827;28;20056;-78
2021/11/26 06:45:21;;;;;;;30.67;11.52;;;;;;;3.91;97.50;99342.72;5063755;28;20373;-77
2021/11/26 06:47:48;;;;;;;23.88;11.43;;;;;;;3.86;96.91;99324.72;5049533;28;20530;-76
2021/11/26 06:50:17;;;;;;;32.58;11.57;;;;;;;3.83;96.79;99330.09;5062688;28;20136;-77
2021/11/26 06:52:46;;;;;;;21.67;11.10;;;;;;;3.86;96.37;99332.53;5046570;28;20040;-77
2021/11/26 06:55:17;;;;;;;26.20;10.80;;;;;;;3.87;95.73;99334.22;5061011;28;20045;-77
2021/11/26 06:57:48;;;;;;;26.48;11.45;;;;;;;3.88;96.11;99327.25;5001068;28;20062;-77
2021/11/26 07:00:18;;;;;;;20.98;10.30;;;;;;;3.88;95.60;99327.25;5046315;28;20071;-76
2021/11/26 07:02:47;;;;;;;28.48;10.15;;;;;;;3.96;95.53;99325.06;5064422;28;20175;-75
2021/11/26 07:05:15;;;;;;;31.95;10.82;;;;;;;3.90;94.86;99331.44;5079464;28;20041;-75
2021/11/26 07:07:45;;;;;;;33.40;10.65;;;;;;;3.88;95.38;99329.88;5049320;28;20064;-76
2021/11/26 07:10:13;;;;;;;26.77;10.85;;;;;;;3.87;95.21;99318.59;5059168;28;20052;-77
2021/11/26 07:12:41;;;;;;;24.08;11.25;;;;;;;3.84;95.58;99321.38;5067007;28;20044;-77
2021/11/26 07:15:10;;;;;;;23.25;9.98;;;;;;;3.87;96.53;99325.56;5028981;28;20063;-76
2021/11/26 07:17:39;;;;;;;34.28;11.85;;;;;;;3.97;95.27;99334.59;5049236;28;20036;-76
2021/11/26 07:20:07;;;;;;;27.60;11.35;;;;;;;3.94;95.63;99330.38;5054905;28;20488;-76
2021/11/26 07:22:35;;;;;;;29.95;11.40;;;;;;;3.97;94.88;99332.81;5048646;28;20045;-76
2021/11/26 07:25:06;;;;;;;27.55;10.45;;;;;;;3.90;94.62;99325.41;5063602;28;20491;-76
2021/11/26 07:27:34;;;;;;;27.45;10.50;;;;;;;3.97;94.63;99322.41;5047827;28;20140;-76
2021/11/26 07:30:03;;;;;;;25.20;10.88;;;;;;;3.95;94.83;99319.03;5045941;28;20148;-75
2021/11/26 07:32:30;;;;;;;22.92;9.80;;;;;;;3.98;94.85;99320.66;5081777;28;20128;-76
2021/11/26 07:34:57;;;;;;;21.90;10.07;;;;;;;4.02;94.21;99309.16;5063153;28;20067;-74
2021/11/26 07:37:25;;;;;;;23.27;11.07;;;;;;;4.04;94.71;99304.69;5048557;28;20077;-75
2021/11/26 07:39:53;;;;;;;26.00;10.38;;;;;;;4.09;93.52;99309.66;5045731;28;20159;-77
2021/11/26 07:42:21;;;;;;;29.23;10.70;;;;;;;4.04;93.02;99305.53;5048601;28;20042;-75
2021/11/26 07:44:48;;;;;;;20.15;9.23;;;;;;;4.16;92.61;99313.63;5061076;28;20036;-76
2021/11/26 07:47:17;;;;;;;23.58;9.88;;;;;;;4.13;92.02;99308.56;5065387;28;20128;-74
2021/11/26 07:49:45;;;;;;;21.13;9.13;;;;;;;4.09;92.14;99300.06;5045583;28;20487;-75
2021/11/26 07:52:12;;;;;;;20.33;8.77;;;;;;;4.13;91.34;99296.38;5066172;28;20590;-76
2021/11/26 07:54:40;;;;;;;27.13;9.65;;;;;;;4.17;91.63;99299.66;5042410;28;20043;-76
2021/11/26 07:57:08;;;;;;;22.52;10.02;;;;;;;4.23;91.35;99301.94;5082026;28;20048;-75
2021/11/26 07:59:35;;;;;;;17.58;8.75;;;;;;;4.23;91.56;99294.13;5061809;28;20139;-78
2021/11/26 08:02:03;;;;;;;19.45;8.85;;;;;;;4.25;90.29;99285.31;5063217;28;20154;-76
2021/11/26 08:04:31;;;;;;;24.65;9.23;;;;;;;4.24;90.54;99288.84;5033332;28;20460;-77
2021/11/26 08:06:58;;;;;;;24.45;8.75;;;;;;;4.36;89.48;99294.28;5032529;28;20095;-75
2021/11/26 08:09:26;;;;;;;18.17;7.95;;;;;;;4.32;89.58;99286.66;5043943;28;20656;-75
2021/11/26 08:11:55;;;;;;;27.27;9.73;;;;;;;4.26;90.08;99288.75;5063327;28;20060;-75
2021/11/26 08:14:25;;;;;;;19.10;8.73;;;;;;;4.29;89.48;99299.00;5041915;28;20407;-75
2021/11/26 08:16:54;;;;;;;26.73;8.73;;;;;;;4.32;89.90;99286.66;5047798;28;20430;-75
2021/11/26 08:19:23;;;;;;;22.10;8.48;;;;;;;4.34;89.40;99283.97;5075573;28;20934;-75
2021/11/26 08:21:53;;;;;;;22.25;8.57;;;;;;;4.29;89.47;99278.19;5047537;28;20483;-75
2021/11/26 08:24:22;;;;;;;20.02;8.38;;;;;;;4.36;89.65;99271.69;5043220;28;20115;-76
2021/11/26 08:26:50;;;;;;;16.02;7.43;;;;;;;4.41;90.10;99267.06;5063608;28;21948;-76
2021/11/26 08:29:18;;;;;;;26.23;8.15;;;;;;;4.42;89.86;99263.56;5077439;28;20057;-76
2021/11/26 08:31:46;;;;;;;23.70;8.23;;;;;;;4.51;89.64;99260.44;5034136;28;20468;-75
2021/11/26 08:34:13;;;;;;;22.63;9.25;;;;;;;4.52;88.93;99258.66;5046557;28;20053;-78
2021/11/26 08:36:41;;;;;;;18.92;9.50;;;;;;;4.66;89.38;99258.72;5050802;28;20144;-77
2021/11/26 08:39:09;;;;;;;24.38;9.00;;;;;;;4.76;88.66;99259.88;5043043;28;20045;-79
2021/11/26 08:41:36;;;;;;;24.17;9.57;;;;;;;4.82;87.77;99253.50;5046028;28;20588;-76
2021/11/26 08:44:05;;;;;;;19.33;9.00;;;;;;;5.00;87.71;99249.81;5078260;28;20048;-76
2021/11/26 08:46:32;;;;;;;18.95;8.75;;;;;;;5.12;86.13;99247.41;5062846;28;20044;-75
2021/11/26 08:48:59;;;;;;;19.23;9.45;;;;;;;5.28;86.32;99248.22;5047219;28;20520;-77
2021/11/26 08:51:30;;;;;;;26.17;9.13;;;;;;;5.20;85.37;99247.81;5048393;28;20131;-76
2021/11/26 08:53:58;;;;;;;20.83;9.00;;;;;;;5.24;85.85;99247.53;5064392;28;20052;-76
2021/11/26 08:56:26;;;;;;;21.25;8.95;;;;;;;5.24;84.69;99242.31;5064048;28;20041;-76
2021/11/26 08:58:53;;;;;;;20.20;8.23;;;;;;;5.33;85.12;99239.16;5049682;28;20442;-78
2021/11/26 09:01:23;;;;;;;22.95;9.18;;;;;;;5.38;84.26;99238.06;5066352;28;20054;-75
2021/11/26 09:03:51;;;;;;;18.08;9.82;;;;;;;5.41;84.63;99246.53;5065883;28;20128;-75
2021/11/26 09:06:20;;;;;;;20.17;8.80;;;;;;;5.51;84.18;99245.06;5064725;28;20050;-76
2021/11/26 09:08:47;;;;;;;22.00;9.55;;;;;;;5.57;83.26;99251.66;5043726;28;20046;-76
2021/11/26 09:11:16;;;;;;;28.63;10.43;;;;;;;5.45;83.72;99244.56;5078105;28;20044;-75
2021/11/26 09:13:44;;;;;;;22.27;9.63;;;;;;;5.55;83.46;99246.56;5067437;28;20059;-76
2021/11/26 09:16:13;;;;;;;18.42;9.13;;;;;;;5.57;83.19;99244.69;5047608;28;20038;-78
2021/11/26 09:18:40;;;;;;;20.83;10.13;;;;;;;5.67;82.84;99231.91;5066399;28;20055;-76
2021/11/26 09:21:08;;;;;;;27.27;10.27;;;;;;;5.65;81.98;99240.78;5031435;28;20136;-76
2021/11/26 09:23:38;;;;;;;21.52;9.57;;;;;;;5.68;81.48;99233.59;5043221;28;20051;-76
2021/11/26 09:26:05;;;;;;;27.17;10.68;;;;;;;5.65;82.12;99232.94;5064698;28;20409;-75
2021/11/26 09:28:33;;;;;;;20.45;10.43;;;;;;;5.68;81.60;99228.38;5049698;28;20090;-77
2021/11/26 09:31:00;;;;;;;27.30;10.25;;;;;;;5.93;80.96;99219.88;5010648;28;20060;-75
2021/11/26 09:33:35;;;;;;;27.33;11.00;;;;;;;6.05;80.58;99219.13;5066234;28;20044;-75
2021/11/26 09:36:07;;;;;;;25.67;10.65;;;;;;;5.96;80.05;99216.25;5062373;28;20132;-78
2021/11/26 09:38:35;;;;;;;21.75;9.77;;;;;;;5.79;80.32;99215.50;5064989;28;21329;-77
2021/11/26 09:41:05;;;;;;;24.80;11.70;;;;;;;5.79;80.36;99214.66;5066553;28;20135;-76
2021/11/26 09:43:52;;;;;;;24.30;10.80;;;;;;;5.74;80.24;99201.03;5051964;28;20036;-76
2021/11/26 09:46:24;;;;;;;23.83;11.20;;;;;;;5.90;79.57;99196.56;5065932;28;20076;-74
2021/11/26 09:48:52;;;;;;;25.70;10.95;;;;;;;6.01;79.86;99188.06;5067145;28;20049;-75
2021/11/26 09:51:19;;;;;;;24.38;9.60;;;;;;;6.06;78.01;99192.06;5031798;28;20037;-77
2021/11/26 09:53:47;;;;;;;25.30;10.65;;;;;;;5.83;77.94;99197.88;5032495;28;20049;-75
2021/11/26 09:56:14;;;;;;;29.40;11.52;;;;;;;5.77;78.46;99188.66;5067885;28;20446;-76
2021/11/26 09:58:42;;;;;;;21.00;9.90;;;;;;;5.95;78.73;99191.09;5031529;28;20495;-77
2021/11/26 10:01:10;;;;;;;22.23;10.02;;;;;;;6.11;78.28;99185.72;5079107;28;20053;-75
2021/11/26 10:03:47;;;;;;;28.42;10.75;;;;;;;6.05;77.24;99179.94;5066608;28;20143;-76
2021/11/26 10:06:22;;;;;;;21.80;9.30;;;;;;;5.95;77.46;99173.63;5050668;28;20049;-75
2021/11/26 10:09:12;;;;;;;23.75;9.50;;;;;;;5.92;77.19;99172.97;5031920;28;20046;-76
2021/11/26 10:11:52;;;;;;;20.10;10.13;;;;;;;5.94;76.33;99171.09;5049015;28;20041;-75
2021/11/26 10:14:36;;;;;;;26.55;10.15;;;;;;;5.98;76.37;99152.53;5060996;28;20054;-77
2021/11/26 10:17:20;;;;;;;19.17;10.88;;;;;;;6.20;75.93;99159.00;5050456;28;20059;-79
2021/11/26 10:19:54;;;;;;;27.25;12.35;;;;;;;6.34;75.88;99154.53;5044944;28;20127;-75
2021/11/26 10:22:27;;;;;;;21.48;11.60;;;;;;;6.30;76.11;99157.47;5026902;28;20086;-75
2021/11/26 10:24:58;;;;;;;27.65;11.60;;;;;;;6.34;75.70;99144.09;5076242;28;20052;-78
2021/11/26 10:27:40;;;;;;;23.42;11.82;;;;;;;6.34;75.83;99141.47;5065626;28;20044;-75
2021/11/26 10:30:21;;;;;;;28.42;12.82;;;;;;;6.48;75.55;99137.13;5059102;28;20076;-76
2021/11/26 10:33:17;;;;;;;32.17;14.10;;;;;;;6.55;76.16;99141.03;5047298;28;20123;-75
2021/11/26 10:35:57;;;;;;;23.55;13.35;;;;;;;6.30;77.10;99133.94;5029383;28;20051;-75
2021/11/26 10:38:32;;;;;;;24.58;13.77;;;;;;;6.27;78.12;99132.38;5082465;28;20707;-76
2021/11/26 10:41:04;;;;;;;25.58;14.38;;;;;;;5.98;78.80;99122.94;5027149;28;20634;-75
2021/11/26 11:00:00;;;;;;;33.15;15.88;;;;;;;6.50;77.15;99102.13;5062779;28;20136;-76
2021/11/26 11:02:35;;;;;;;30.30;17.17;;;;;;;6.62;77.38;99097.84;5045762;28;20040;-75
2021/11/26 11:05:05;;;;;;;29.55;16.48;;;;;;;6.64;76.49;99100.34;5076673;28;20051;-75
2021/11/26 11:07:42;;;;;;;27.40;15.18;;;;;;;6.34;77.44;99101.44;5046340;28;20055;-75
2021/11/26 11:10:14;;;;;;;29.42;15.35;;;;;;;6.34;77.17;99090.97;5076986;28;20119;-76
2021/11/26 11:12:41;;;;;;;24.20;14.90;;;;;;;6.54;77.34;99090.50;5050634;28;20116;-75
2021/11/26 11:15:11;;;;;;;33.72;16.33;;;;;;;6.48;77.05;99084.84;5062958;28;20043;-76
2021/11/26 11:17:39;;;;;;;30.35;17.25;;;;;;;6.44;77.22;99080.75;5045660;28;20395;-74
2021/11/26 11:20:11;;;;;;;24.35;15.68;;;;;;;6.59;77.34;99074.50;5028855;28;20048;-75
2021/11/26 11:22:38;;;;;;;28.30;16.70;;;;;;;6.64;77.04;99067.19;5015398;28;20564;-75
2021/11/26 11:25:10;;;;;;;27.80;15.13;;;;;;;6.86;75.89;99061.34;5045220;28;20360;-75
2021/11/26 11:27:38;;;;;;;30.08;15.52;;;;;;;7.36;74.33;99055.19;5032187;28;20048;-76
2021/11/26 11:30:08;;;;;;;35.95;16.88;;;;;;;7.41;73.38;99046.19;5043614;28;20127;-75
2021/11/26 11:32:37;;;;;;;26.98;15.15;;;;;;;7.68;72.03;99046.00;5049031;28;20509;-74
2021/11/26 11:35:09;;;;;;;27.88;14.85;;;;;;;8.16;70.04;99038.13;5026569;28;20099;-75
2021/11/26 11:37:37;;;;;;;25.40;14.13;;;;;;;8.50;67.63;99032.03;5044225;28;20105;-76
2021/11/26 11:40:09;;;;;;;24.92;15.07;;;;;;;8.96;65.34;99039.03;5045887;28;20139;-76
2021/11/26 11:42:43;;;;;;;26.50;15.00;;;;;;;9.90;63.12;99019.25;5062892;28;20058;-76
2021/11/26 11:45:14;;;;;;;27.15;14.70;;;;;;;10.77;59.14;99019.91;5045741;28;20059;-76
2021/11/26 11:47:50;;;;;;;23.67;13.40;;;;;;;11.19;57.87;99018.97;5049413;28;20048;-74
2021/11/26 11:50:25;;;;;;;27.52;14.02;;;;;;;11.14;55.88;99009.66;5028393;28;20124;-73
2021/11/26 11:52:59;;;;;;;24.20;14.00;;;;;;;11.56;55.37;99004.22;5050149;28;20704;-75
2021/11/26 11:55:33;;;;;;;21.65;13.55;;;;;;;11.88;53.38;99000.53;5031387;28;20446;-75